createdAt,value
2023-03-24T00:03:07.487Z,1.50
2023-03-24T00:08:11.603Z,1.63
2023-03-24T00:13:16.222Z,1.60
2023-03-24T00:18:22.541Z,1.55
2023-03-24T00:23:28.006Z,1.60
2023-03-24T00:28:34.936Z,1.60
2023-03-24T00:33:40.440Z,1.50
2023-03-24T00:38:44.167Z,1.60
2023-03-24T00:43:49.084Z,1.95
2023-03-24T00:48:57.975Z,1.60
2023-03-24T00:54:02.217Z,1.50
2023-03-24T00:59:10.186Z,1.60
2023-03-24T01:04:15.846Z,1.60
2023-03-24T01:09:21.555Z,1.88
2023-03-24T01:14:25.374Z,1.83
2023-03-24T01:19:32.993Z,1.77
2023-03-24T01:24:36.938Z,1.67
2023-03-24T01:29:43.778Z,1.83
2023-03-24T01:34:49.092Z,1.48
2023-03-24T01:39:53.330Z,1.80
2023-03-24T01:45:03.506Z,1.60
2023-03-24T01:50:09.360Z,1.60
2023-03-24T01:55:19.977Z,1.70
2023-03-24T02:00:25.889Z,1.80
2023-03-24T02:05:57.653Z,1.80
2023-03-24T02:11:03.215Z,1.70
2023-03-24T02:16:44.302Z,1.70
2023-03-24T02:23:17.779Z,1.60
2023-03-24T02:28:43.609Z,1.65
2023-03-24T03:10:26.379Z,1.80
2023-03-24T03:15:35.872Z,1.50
2023-03-24T03:20:50.487Z,1.45
2023-03-24T03:26:04.841Z,1.48
2023-03-24T03:31:14.984Z,1.48
2023-03-24T03:36:27.969Z,1.60
2023-03-24T03:41:32.143Z,1.70
2023-03-24T03:46:37.904Z,1.48
2023-03-24T03:51:46.936Z,1.20
2023-03-24T03:56:52.224Z,1.40
2023-03-24T04:02:35.197Z,1.30
2023-03-24T04:08:27.482Z,1.50
2023-03-24T04:13:45.128Z,1.50
2023-03-24T04:19:14.989Z,1.45
2023-03-24T04:24:36.918Z,1.40
2023-03-24T04:29:58.252Z,1.35
2023-03-24T04:35:13.035Z,1.40
2023-03-24T04:40:49.601Z,1.40
2023-03-24T04:45:57.836Z,1.33
2023-03-24T04:51:23.299Z,1.30
2023-03-24T04:56:51.535Z,1.40
2023-03-24T05:02:07.055Z,1.48
2023-03-24T05:07:21.440Z,1.30
2023-03-24T05:12:28.923Z,1.30
2023-03-24T05:17:53.098Z,1.70
2023-03-24T05:23:01.569Z,1.38
2023-03-24T05:28:07.020Z,1.38
2023-03-24T05:33:11.530Z,1.55
2023-03-24T05:38:15.762Z,1.55
2023-03-24T05:43:24.869Z,1.70
2023-03-24T05:48:38.366Z,1.45
2023-03-24T05:53:51.993Z,1.40
2023-03-24T05:59:00.809Z,1.50
2023-03-24T06:04:29.924Z,1.55
2023-03-24T06:09:42.336Z,1.20
2023-03-24T06:14:49.250Z,1.40
2023-03-24T06:19:52.828Z,1.50
2023-03-24T06:25:13.792Z,1.38
2023-03-24T06:30:23.232Z,1.30
2023-03-24T06:35:27.343Z,1.38
2023-03-24T06:40:39.072Z,1.23
2023-03-24T06:45:46.215Z,1.30
2023-03-24T06:50:57.435Z,1.20
2023-03-24T06:56:01.106Z,1.30
2023-03-24T07:01:13.175Z,1.50
2023-03-24T07:06:29.689Z,1.23
2023-03-24T07:11:38.638Z,1.38
2023-03-24T07:16:43.804Z,1.40
2023-03-24T07:22:19.715Z,1.15
2023-03-24T07:27:46.081Z,1.20
2023-03-24T07:32:51.397Z,1.30
2023-03-24T07:37:58.791Z,1.30
2023-03-24T07:43:05.903Z,1.13
2023-03-24T07:48:28.564Z,1.10
2023-03-24T07:53:32.463Z,1.17
2023-03-24T07:58:36.018Z,1.38
2023-03-24T08:03:58.882Z,1.25
2023-03-24T08:09:24.178Z,1.10
2023-03-24T08:14:27.641Z,1.25
2023-03-24T08:19:32.839Z,1.10
2023-03-24T08:24:37.372Z,1.27
2023-03-24T08:29:41.118Z,1.38
2023-03-24T08:34:45.922Z,1.35
2023-03-24T08:39:49.372Z,1.30
2023-03-24T08:44:52.831Z,1.65
2023-03-24T08:49:58.924Z,1.25
2023-03-24T08:55:02.481Z,1.13
2023-03-24T09:00:13.512Z,1.13
2023-03-24T09:05:22.793Z,1.10
2023-03-24T09:10:33.184Z,1.17
2023-03-24T09:15:36.879Z,1.30
2023-03-24T09:20:41.844Z,1.00
2023-03-24T09:25:45.452Z,1.30
2023-03-24T09:30:49.987Z,1.10
2023-03-24T09:36:00.404Z,1.40
2023-03-24T09:41:05.892Z,1.27
2023-03-24T09:46:16.931Z,1.17
2023-03-24T09:51:26.592Z,1.30
2023-03-24T09:56:31.483Z,1.00
2023-03-24T10:01:36.458Z,1.10
2023-03-24T10:06:44.129Z,1.10
2023-03-24T10:12:12.764Z,1.15
2023-03-24T10:17:28.054Z,1.23
2023-03-24T10:22:39.507Z,1.20
2023-03-24T10:27:52.227Z,1.10
2023-03-24T10:32:55.848Z,1.20
2023-03-24T10:38:02.672Z,1.10
2023-03-24T10:43:09.374Z,1.13
2023-03-24T10:48:16.221Z,1.10
2023-03-24T10:53:22.618Z,1.27
2023-03-24T10:58:37.810Z,1.13
2023-03-24T11:03:41.752Z,1.15
2023-03-24T11:08:46.724Z,1.20
2023-03-24T11:13:58.127Z,1.10
2023-03-24T11:19:05.513Z,1.10
2023-03-24T11:24:16.639Z,0.90
2023-03-24T11:29:24.296Z,1.00
2023-03-24T11:34:34.209Z,1.10
2023-03-24T11:39:39.124Z,1.10
2023-03-24T11:44:55.371Z,0.90
2023-03-24T11:50:20.119Z,1.13
2023-03-24T11:55:38.548Z,0.95
2023-03-24T12:00:49.652Z,1.17
2023-03-24T12:06:01.733Z,1.00
2023-03-24T12:11:19.365Z,1.20
2023-03-24T12:22:02.246Z,1.15
2023-03-24T12:27:08.666Z,1.00
2023-03-24T12:32:30.086Z,1.15
2023-03-24T12:37:46.898Z,1.00
2023-03-24T12:43:03.145Z,1.02
2023-03-24T12:48:48.856Z,0.80
2023-03-24T12:54:11.974Z,1.10
2023-03-24T12:59:25.188Z,0.90
2023-03-24T13:04:34.316Z,1.10
2023-03-24T13:09:48.046Z,0.98
2023-03-24T13:15:03.285Z,1.00
2023-03-24T13:20:15.278Z,1.00
2023-03-24T13:25:32.329Z,1.10
2023-03-24T13:30:39.878Z,1.47
2023-03-24T13:36:13.643Z,0.93
2023-03-24T13:41:24.092Z,1.05
2023-03-24T13:46:29.850Z,0.85
2023-03-24T13:51:38.065Z,0.80
2023-03-24T13:56:55.728Z,0.85
2023-03-24T14:02:46.944Z,0.90
2023-03-24T14:07:52.073Z,0.90
2023-03-24T14:12:58.642Z,0.90
2023-03-24T14:18:41.468Z,0.90
2023-03-24T14:23:48.133Z,0.90
2023-03-24T14:28:53.516Z,0.90
2023-03-24T14:34:10.910Z,0.80
2023-03-24T14:39:29.177Z,0.80
2023-03-24T14:44:58.330Z,0.80
2023-03-24T14:50:17.854Z,0.88
2023-03-24T14:55:22.353Z,0.82
2023-03-24T15:00:34.161Z,1.00
2023-03-24T15:05:39.461Z,0.90
2023-03-24T15:10:49.996Z,0.90
2023-03-24T15:15:53.789Z,0.82
2023-03-24T15:20:58.622Z,0.75
2023-03-24T15:26:02.073Z,0.90
2023-03-24T15:31:06.344Z,0.90
2023-03-24T15:36:23.106Z,0.90
2023-03-24T15:41:26.598Z,0.82
2023-03-24T15:46:32.105Z,0.90
2023-03-24T15:51:51.739Z,0.80
2023-03-24T15:57:16.532Z,0.80
2023-03-24T16:02:33.348Z,0.80
2023-03-24T16:07:40.742Z,1.00
2023-03-24T16:12:44.417Z,0.90
2023-03-24T16:17:48.406Z,0.80
2023-03-24T16:22:53.163Z,0.90
2023-03-24T16:27:56.570Z,0.70
2023-03-24T16:33:00.032Z,0.90
2023-03-24T16:38:05.977Z,0.93
2023-03-24T16:43:09.372Z,1.10
2023-03-24T16:48:13.255Z,1.08
2023-03-24T16:53:18.719Z,1.00
2023-03-24T16:58:22.423Z,1.20
2023-03-24T17:03:29.872Z,1.10
2023-03-24T17:08:34.835Z,1.35
2023-03-24T17:13:38.242Z,1.30
2023-03-24T17:18:41.651Z,1.38
2023-03-24T17:23:49.248Z,1.20
2023-03-24T17:28:52.828Z,1.20
2023-03-24T17:33:59.138Z,1.40
2023-03-24T17:39:05.380Z,1.20
2023-03-24T17:44:08.806Z,1.40
2023-03-24T17:49:12.262Z,1.45
2023-03-24T17:54:19.184Z,1.48
2023-03-24T17:59:22.634Z,1.55
2023-03-24T18:04:26.192Z,1.65
2023-03-24T18:09:33.566Z,1.60
2023-03-24T18:14:36.967Z,1.60
2023-03-24T18:19:40.403Z,2.13
2023-03-24T18:24:45.565Z,1.40
2023-03-24T18:29:48.959Z,1.80
2023-03-24T18:34:52.369Z,1.67
2023-03-24T18:39:57.108Z,1.80
2023-03-24T18:45:00.651Z,1.98
2023-03-24T18:50:04.184Z,1.70
2023-03-24T18:55:11.445Z,1.83
2023-03-24T19:00:16.249Z,1.70
2023-03-24T19:05:19.966Z,1.90
2023-03-24T19:10:24.718Z,1.70
2023-03-24T19:15:29.670Z,1.90
2023-03-24T19:20:34.834Z,1.70
2023-03-24T19:25:40.393Z,1.77
2023-03-24T19:30:44.309Z,1.70
2023-03-24T19:35:49.491Z,1.80
2023-03-24T19:40:55.170Z,1.95
2023-03-24T19:45:58.736Z,2.00
2023-03-24T19:51:02.246Z,2.00
2023-03-24T19:56:08.995Z,1.70
2023-03-24T20:01:12.824Z,1.83
2023-03-24T20:06:18.435Z,1.85
2023-03-24T20:11:24.478Z,2.08
2023-03-24T20:16:27.887Z,2.25
2023-03-24T20:21:31.598Z,2.00
2023-03-24T20:26:36.907Z,2.05
2023-03-24T20:31:42.880Z,1.80
2023-03-24T20:36:46.477Z,1.98
2023-03-24T20:41:51.310Z,1.83
2023-03-24T20:46:57.019Z,1.77
2023-03-24T20:52:00.508Z,1.70
2023-03-24T20:57:06.267Z,1.70
2023-03-24T21:02:12.170Z,1.60
2023-03-24T21:07:16.009Z,1.83
2023-03-24T21:12:21.824Z,2.00
2023-03-24T21:17:32.615Z,1.55
2023-03-24T21:22:47.485Z,1.70
2023-03-24T21:27:52.913Z,1.90
2023-03-24T21:32:58.178Z,1.70
2023-03-24T21:38:01.594Z,2.03
2023-03-24T21:43:06.704Z,1.70
2023-03-24T21:48:14.069Z,1.70
2023-03-24T21:53:18.155Z,1.70
2023-03-24T21:58:23.884Z,1.52
2023-03-24T22:03:27.719Z,1.63
2023-03-24T22:08:31.210Z,1.70
2023-03-24T22:13:37.170Z,1.80
2023-03-24T22:18:40.622Z,1.90
2023-03-24T22:23:44.588Z,1.77
2023-03-24T22:28:50.562Z,1.70
2023-03-24T22:33:54.201Z,1.70
2023-03-24T22:38:57.611Z,1.75
2023-03-24T22:44:02.419Z,1.85
2023-03-24T22:49:06.126Z,1.60
2023-03-24T22:54:09.663Z,1.77
2023-03-24T22:59:14.658Z,1.75
2023-03-24T23:04:18.361Z,1.70
2023-03-24T23:09:22.002Z,1.70
2023-03-24T23:14:27.719Z,1.60
2023-03-24T23:19:33.164Z,1.58
2023-03-24T23:24:39.293Z,1.48
2023-03-24T23:29:44.633Z,1.70
2023-03-24T23:34:48.775Z,1.80
2023-03-24T23:39:52.265Z,1.50
2023-03-24T23:44:57.073Z,1.55
2023-03-24T23:50:00.811Z,1.58
2023-03-24T23:55:05.080Z,1.40
